Sulphur, Oklahoma
Current Conditions -  °F | °C
As of 9:55 AM on Friday 24 Oct 2014 (Local Time) from KADM Reporting Station
Broken Clouds Broken Clouds  
Wind Chill: 66°   Ceiling: 5000
Heat Index: 66°   Visibility: 10mi
Dew Point: 61°   Wind: 6mph
Humidity: 83%   Direction: 110°ESE
Pressure: 30.15"   Gusts: NA
Location:  34.51°N, 96.97°W
Report Text: KADM 241455Z 11005KT 10SM BKN050 BKN065 19/16 A3015
Loading
Personal Weather Stations






























Interactive Weather Map
Tropical Storm Tracking
New forecast layout! Learn more

10-Day Weather Forecast

Advertisements
Track Severe Weather on mobile